Terminal Aerodrome Forecast
Issued by NWS

Home | Current Version | Previous Version | Text Only | Print | Product List | Glossary On
Versions: 1 2 3 4 5 6 7 8 9 10 11 12 13 14 15 16 17 18 19 20 21 22 23 24
000
FTAK31 PAFA 270539
TAFAMC
TAF
PAMC 270539Z 2706/2806 VRB04KT P6SM FEW080 SCT100 BKN200
     FM271200 VRB03KT P6SM VCSH SCT060 BKN100
     FM271400 VRB03KT 6SM -SHSN BR SCT020 BKN035
     FM272000 VRB03KT P6SM SCT100 BKN200=

USA.gov is the U.S. government's official web portal to all federal, state and local government web resources and services.